sensor_id;sensor_type;location;lat;lon;timestamp;pressure;altitude;pressure_sealevel;temperature;humidity
64025;BME280;50266;57.446;26.936;2023-07-13T00:00:15;98828.78;;;12.67;100.0
64025;BME280;50266;57.446;26.936;2023-07-13T00:01:15;98829.98;;;12.73;100.0
64025;BME280;50266;57.446;26.936;2023-07-13T00:02:15;98834.69;;;12.94;100.0
64025;BME280;50266;57.446;26.936;2023-07-13T00:03:14;98831.48;;;12.89;100.0
64025;BME280;50266;57.446;26.936;2023-07-13T00:04:15;98830.75;;;12.49;100.0
64025;BME280;50266;57.446;26.936;2023-07-13T00:05:14;98826.55;;;12.51;100.0
64025;BME280;50266;57.446;26.936;2023-07-13T00:06:14;98825.14;;;12.8;100.0
64025;BME280;50266;57.446;26.936;2023-07-13T00:07:14;98830.19;;;12.53;100.0
64025;BME280;50266;57.446;26.936;2023-07-13T00:08:14;98823.41;;;12.44;100.0
64025;BME280;50266;57.446;26.936;2023-07-13T00:09:15;98824.12;;;12.51;100.0
64025;BME280;50266;57.446;26.936;2023-07-13T00:10:15;98818.45;;;12.76;100.0
64025;BME280;50266;57.446;26.936;2023-07-13T00:11:15;98817.99;;;12.7;100.0
64025;BME280;50266;57.446;26.936;2023-07-13T00:12:28;98817.77;;;12.79;100.0
64025;BME280;50266;57.446;26.936;2023-07-13T00:13:15;98817.88;;;12.83;100.0
64025;BME280;50266;57.446;26.936;2023-07-13T00:14:15;98817.73;;;12.84;100.0
64025;BME280;50266;57.446;26.936;2023-07-13T00:15:19;98817.89;;;12.69;100.0
64025;BME280;50266;57.446;26.936;2023-07-13T00:16:16;98818.11;;;12.35;100.0
64025;BME280;50266;57.446;26.936;2023-07-13T00:17:16;98819.56;;;12.1;100.0
64025;BME280;50266;57.446;26.936;2023-07-13T00:18:16;98815.84;;;12.31;100.0
64025;BME280;50266;57.446;26.936;2023-07-13T00:19:16;98816.8;;;12.43;100.0
64025;BME280;50266;57.446;26.936;2023-07-13T00:20:16;98818.11;;;12.09;100.0
64025;BME280;50266;57.446;26.936;2023-07-13T00:21:16;98824.16;;;12.31;100.0
64025;BME280;50266;57.446;26.936;2023-07-13T00:22:16;98827.16;;;12.49;100.0
64025;BME280;50266;57.446;26.936;2023-07-13T00:23:16;98819.53;;;12.05;100.0
64025;BME280;50266;57.446;26.936;2023-07-13T00:24:17;98820.05;;;12.13;100.0
64025;BME280;50266;57.446;26.936;2023-07-13T00:25:16;98823.66;;;12.28;100.0
64025;BME280;50266;57.446;26.936;2023-07-13T00:26:16;98821.09;;;12.38;100.0
64025;BME280;50266;57.446;26.936;2023-07-13T00:27:16;98823.62;;;12.27;100.0
64025;BME280;50266;57.446;26.936;2023-07-13T00:28:16;98820.05;;;11.96;100.0
64025;BME280;50266;57.446;26.936;2023-07-13T00:29:16;98815.83;;;11.87;100.0
64025;BME280;50266;57.446;26.936;2023-07-13T00:30:16;98815.0;;;11.62;100.0
64025;BME280;50266;57.446;26.936;2023-07-13T00:31:16;98812.47;;;11.86;100.0
64025;BME280;50266;57.446;26.936;2023-07-13T00:32:16;98812.61;;;11.98;100.0
64025;BME280;50266;57.446;26.936;2023-07-13T00:33:16;98812.91;;;11.9;100.0
64025;BME280;50266;57.446;26.936;2023-07-13T00:34:16;98815.8;;;12.12;100.0
64025;BME280;50266;57.446;26.936;2023-07-13T00:35:16;98810.55;;;12.01;100.0
64025;BME280;50266;57.446;26.936;2023-07-13T00:36:17;98805.19;;;11.91;100.0
64025;BME280;50266;57.446;26.936;2023-07-13T00:37:16;98811.61;;;12.15;100.0
64025;BME280;50266;57.446;26.936;2023-07-13T00:38:16;98810.61;;;12.21;100.0
64025;BME280;50266;57.446;26.936;2023-07-13T00:39:17;98804.27;;;11.87;100.0
64025;BME280;50266;57.446;26.936;2023-07-13T00:40:17;98804.09;;;11.83;100.0
64025;BME280;50266;57.446;26.936;2023-07-13T00:41:16;98806.14;;;11.99;100.0
64025;BME280;50266;57.446;26.936;2023-07-13T00:42:17;98802.61;;;12.03;100.0
64025;BME280;50266;57.446;26.936;2023-07-13T00:43:17;98795.69;;;11.8;100.0
64025;BME280;50266;57.446;26.936;2023-07-13T00:44:18;98796.77;;;11.75;100.0
64025;BME280;50266;57.446;26.936;2023-07-13T00:46:28;98794.5;;;11.42;100.0
64025;BME280;50266;57.446;26.936;2023-07-13T00:47:19;98792.05;;;11.7;100.0
64025;BME280;50266;57.446;26.936;2023-07-13T00:48:21;98796.23;;;11.92;100.0
64025;BME280;50266;57.446;26.936;2023-07-13T00:49:20;98795.69;;;12.0;100.0
64025;BME280;50266;57.446;26.936;2023-07-13T00:50:20;98797.35;;;12.23;100.0
64025;BME280;50266;57.446;26.936;2023-07-13T00:51:33;98795.28;;;12.14;100.0
64025;BME280;50266;57.446;26.936;2023-07-13T00:52:22;98790.87;;;12.17;100.0
64025;BME280;50266;57.446;26.936;2023-07-13T00:53:22;98788.86;;;11.96;100.0
64025;BME280;50266;57.446;26.936;2023-07-13T00:54:25;98784.7;;;11.87;100.0
64025;BME280;50266;57.446;26.936;2023-07-13T00:55:23;98779.9;;;11.59;100.0
64025;BME280;50266;57.446;26.936;2023-07-13T00:56:23;98782.78;;;11.93;100.0
64025;BME280;50266;57.446;26.936;2023-07-13T00:57:23;98781.99;;;12.22;100.0
64025;BME280;50266;57.446;26.936;2023-07-13T00:58:24;98780.92;;;12.51;100.0
64025;BME280;50266;57.446;26.936;2023-07-13T00:59:23;98778.45;;;12.45;100.0
64025;BME280;50266;57.446;26.936;2023-07-13T01:00:23;98778.52;;;12.34;100.0
64025;BME280;50266;57.446;26.936;2023-07-13T01:01:23;98773.94;;;12.44;100.0
64025;BME280;50266;57.446;26.936;2023-07-13T01:02:23;98772.52;;;12.59;100.0
64025;BME280;50266;57.446;26.936;2023-07-13T01:03:23;98772.36;;;12.37;100.0
64025;BME280;50266;57.446;26.936;2023-07-13T01:04:26;98770.87;;;11.93;100.0
64025;BME280;50266;57.446;26.936;2023-07-13T01:05:23;98767.82;;;11.75;100.0
64025;BME280;50266;57.446;26.936;2023-07-13T01:06:23;98764.88;;;11.99;100.0
64025;BME280;50266;57.446;26.936;2023-07-13T01:07:23;98762.38;;;11.68;100.0
64025;BME280;50266;57.446;26.936;2023-07-13T01:08:23;98762.55;;;11.48;100.0
64025;BME280;50266;57.446;26.936;2023-07-13T01:09:25;98768.61;;;11.92;100.0
64025;BME280;50266;57.446;26.936;2023-07-13T01:10:24;98764.23;;;11.75;100.0
64025;BME280;50266;57.446;26.936;2023-07-13T01:11:23;98764.29;;;11.45;100.0
64025;BME280;50266;57.446;26.936;2023-07-13T01:12:24;98763.92;;;11.37;100.0
64025;BME280;50266;57.446;26.936;2023-07-13T01:13:24;98761.17;;;11.53;100.0
64025;BME280;50266;57.446;26.936;2023-07-13T01:14:23;98757.97;;;11.57;100.0
64025;BME280;50266;57.446;26.936;2023-07-13T01:16:25;98755.25;;;11.87;100.0
64025;BME280;50266;57.446;26.936;2023-07-13T01:17:24;98757.59;;;11.85;100.0
64025;BME280;50266;57.446;26.936;2023-07-13T01:18:27;98762.3;;;12.17;100.0
64025;BME280;50266;57.446;26.936;2023-07-13T01:20:25;98757.02;;;11.84;100.0
64025;BME280;50266;57.446;26.936;2023-07-13T01:21:25;98755.79;;;11.78;100.0
64025;BME280;50266;57.446;26.936;2023-07-13T01:22:25;98753.41;;;11.9;100.0
64025;BME280;50266;57.446;26.936;2023-07-13T01:23:25;98753.37;;;11.95;100.0
64025;BME280;50266;57.446;26.936;2023-07-13T01:24:25;98754.12;;;11.84;100.0
64025;BME280;50266;57.446;26.936;2023-07-13T01:25:25;98753.55;;;11.89;100.0
64025;BME280;50266;57.446;26.936;2023-07-13T01:26:25;98749.92;;;12.0;100.0
64025;BME280;50266;57.446;26.936;2023-07-13T01:27:25;98749.48;;;11.99;100.0
64025;BME280;50266;57.446;26.936;2023-07-13T01:28:25;98749.55;;;11.98;100.0
64025;BME280;50266;57.446;26.936;2023-07-13T01:29:25;98746.88;;;12.01;100.0
64025;BME280;50266;57.446;26.936;2023-07-13T01:30:25;98744.41;;;12.02;100.0
64025;BME280;50266;57.446;26.936;2023-07-13T01:31:25;98740.84;;;12.11;100.0
64025;BME280;50266;57.446;26.936;2023-07-13T01:32:25;98739.35;;;12.0;100.0
64025;BME280;50266;57.446;26.936;2023-07-13T01:33:25;98735.87;;;12.25;100.0
64025;BME280;50266;57.446;26.936;2023-07-13T01:34:25;98735.2;;;12.15;100.0
64025;BME280;50266;57.446;26.936;2023-07-13T01:35:25;98735.64;;;12.27;100.0
64025;BME280;50266;57.446;26.936;2023-07-13T01:36:25;98731.73;;;12.28;100.0
64025;BME280;50266;57.446;26.936;2023-07-13T01:37:26;98737.98;;;12.13;100.0
64025;BME280;50266;57.446;26.936;2023-07-13T01:38:25;98735.28;;;12.43;100.0
64025;BME280;50266;57.446;26.936;2023-07-13T01:39:25;98734.33;;;12.13;100.0
64025;BME280;50266;57.446;26.936;2023-07-13T01:40:25;98739.42;;;11.93;100.0
64025;BME280;50266;57.446;26.936;2023-07-13T01:41:25;98740.47;;;12.09;100.0
64025;BME280;50266;57.446;26.936;2023-07-13T01:42:25;98739.64;;;11.84;100.0
64025;BME280;50266;57.446;26.936;2023-07-13T01:43:25;98737.12;;;11.8;100.0
64025;BME280;50266;57.446;26.936;2023-07-13T01:44:25;98737.86;;;11.87;100.0
64025;BME280;50266;57.446;26.936;2023-07-13T01:45:25;98732.69;;;11.79;100.0
64025;BME280;50266;57.446;26.936;2023-07-13T01:46:25;98730.81;;;12.06;100.0
64025;BME280;50266;57.446;26.936;2023-07-13T01:47:25;98728.81;;;12.09;100.0
64025;BME280;50266;57.446;26.936;2023-07-13T01:48:25;98729.55;;;12.04;100.0
64025;BME280;50266;57.446;26.936;2023-07-13T01:49:25;98732.72;;;11.83;100.0
64025;BME280;50266;57.446;26.936;2023-07-13T01:50:25;98730.2;;;11.87;100.0
64025;BME280;50266;57.446;26.936;2023-07-13T01:51:25;98729.19;;;12.03;100.0
64025;BME280;50266;57.446;26.936;2023-07-13T01:52:25;98722.88;;;12.03;100.0
64025;BME280;50266;57.446;26.936;2023-07-13T01:53:25;98723.44;;;12.14;100.0
64025;BME280;50266;57.446;26.936;2023-07-13T01:54:25;98724.12;;;12.14;100.0
64025;BME280;50266;57.446;26.936;2023-07-13T01:55:25;98723.66;;;12.23;100.0
64025;BME280;50266;57.446;26.936;2023-07-13T01:56:25;98723.81;;;12.23;100.0
64025;BME280;50266;57.446;26.936;2023-07-13T01:57:25;98721.08;;;12.1;100.0
64025;BME280;50266;57.446;26.936;2023-07-13T01:58:25;98718.19;;;12.07;100.0
64025;BME280;50266;57.446;26.936;2023-07-13T01:59:25;98718.64;;;12.27;100.0
64025;BME280;50266;57.446;26.936;2023-07-13T02:00:25;98718.15;;;12.15;100.0
64025;BME280;50266;57.446;26.936;2023-07-13T02:01:25;98720.61;;;12.24;100.0
64025;BME280;50266;57.446;26.936;2023-07-13T02:02:25;98716.31;;;12.22;100.0
64025;BME280;50266;57.446;26.936;2023-07-13T02:03:25;98717.74;;;12.26;100.0
64025;BME280;50266;57.446;26.936;2023-07-13T02:04:25;98718.72;;;12.08;100.0
64025;BME280;50266;57.446;26.936;2023-07-13T02:05:25;98714.88;;;11.9;100.0
64025;BME280;50266;57.446;26.936;2023-07-13T02:06:25;98712.55;;;11.97;100.0
64025;BME280;50266;57.446;26.936;2023-07-13T02:07:25;98718.29;;;11.96;100.0
64025;BME280;50266;57.446;26.936;2023-07-13T02:08:26;98716.83;;;11.85;100.0
64025;BME280;50266;57.446;26.936;2023-07-13T02:09:26;98718.19;;;12.02;100.0
64025;BME280;50266;57.446;26.936;2023-07-13T02:10:26;98722.81;;;11.88;100.0
64025;BME280;50266;57.446;26.936;2023-07-13T02:11:26;98717.22;;;11.74;100.0
64025;BME280;50266;57.446;26.936;2023-07-13T02:12:26;98721.14;;;11.8;100.0
64025;BME280;50266;57.446;26.936;2023-07-13T02:13:26;98720.77;;;11.89;100.0
64025;BME280;50266;57.446;26.936;2023-07-13T02:14:26;98717.94;;;11.82;100.0
64025;BME280;50266;57.446;26.936;2023-07-13T02:15:26;98718.38;;;11.82;100.0
64025;BME280;50266;57.446;26.936;2023-07-13T02:16:26;98717.07;;;11.88;100.0
64025;BME280;50266;57.446;26.936;2023-07-13T02:17:26;98716.55;;;12.0;100.0
64025;BME280;50266;57.446;26.936;2023-07-13T02:18:26;98717.98;;;12.09;100.0
64025;BME280;50266;57.446;26.936;2023-07-13T02:19:26;98713.58;;;11.98;100.0
64025;BME280;50266;57.446;26.936;2023-07-13T02:20:26;98717.44;;;12.02;100.0
64025;BME280;50266;57.446;26.936;2023-07-13T02:21:26;98717.28;;;12.02;100.0
64025;BME280;50266;57.446;26.936;2023-07-13T02:22:26;98717.52;;;12.02;100.0
64025;BME280;50266;57.446;26.936;2023-07-13T02:23:26;98717.25;;;12.05;100.0
64025;BME280;50266;57.446;26.936;2023-07-13T02:24:26;98713.58;;;12.04;100.0
64025;BME280;50266;57.446;26.936;2023-07-13T02:25:26;98715.42;;;12.01;100.0
64025;BME280;50266;57.446;26.936;2023-07-13T02:26:26;98713.2;;;12.02;100.0
64025;BME280;50266;57.446;26.936;2023-07-13T02:27:26;98708.71;;;12.03;100.0
64025;BME280;50266;57.446;26.936;2023-07-13T02:28:26;98710.44;;;12.13;100.0
64025;BME280;50266;57.446;26.936;2023-07-13T02:29:26;98710.54;;;12.17;100.0
64025;BME280;50266;57.446;26.936;2023-07-13T02:30:26;98711.98;;;12.22;100.0
64025;BME280;50266;57.446;26.936;2023-07-13T02:31:26;98705.87;;;12.32;100.0
64025;BME280;50266;57.446;26.936;2023-07-13T02:32:26;98705.8;;;12.33;100.0
64025;BME280;50266;57.446;26.936;2023-07-13T02:33:26;98705.47;;;12.4;100.0
64025;BME280;50266;57.446;26.936;2023-07-13T02:34:26;98708.28;;;12.55;100.0
64025;BME280;50266;57.446;26.936;2023-07-13T02:35:26;98701.7;;;12.62;100.0
64025;BME280;50266;57.446;26.936;2023-07-13T02:36:26;98700.9;;;12.67;100.0
64025;BME280;50266;57.446;26.936;2023-07-13T02:37:26;98705.03;;;12.86;100.0
64025;BME280;50266;57.446;26.936;2023-07-13T02:38:26;98704.61;;;12.91;100.0
64025;BME280;50266;57.446;26.936;2023-07-13T02:39:26;98700.46;;;12.96;100.0
64025;BME280;50266;57.446;26.936;2023-07-13T02:40:26;98698.53;;;13.07;100.0
64025;BME280;50266;57.446;26.936;2023-07-13T02:41:26;98697.21;;;13.1;100.0
64025;BME280;50266;57.446;26.936;2023-07-13T02:42:26;98691.5;;;13.12;100.0
64025;BME280;50266;57.446;26.936;2023-07-13T02:43:26;98695.38;;;13.17;100.0
64025;BME280;50266;57.446;26.936;2023-07-13T02:44:26;98692.8;;;13.25;100.0
64025;BME280;50266;57.446;26.936;2023-07-13T02:45:26;98691.6;;;13.15;100.0
64025;BME280;50266;57.446;26.936;2023-07-13T02:46:26;98684.3;;;13.1;100.0
64025;BME280;50266;57.446;26.936;2023-07-13T02:47:26;98689.95;;;13.21;100.0
64025;BME280;50266;57.446;26.936;2023-07-13T02:48:26;98690.16;;;13.11;100.0
64025;BME280;50266;57.446;26.936;2023-07-13T02:49:26;98687.6;;;13.07;100.0
64025;BME280;50266;57.446;26.936;2023-07-13T02:50:26;98689.51;;;13.28;100.0
64025;BME280;50266;57.446;26.936;2023-07-13T02:51:26;98688.03;;;13.39;100.0
64025;BME280;50266;57.446;26.936;2023-07-13T02:52:26;98685.48;;;13.41;100.0
64025;BME280;50266;57.446;26.936;2023-07-13T02:53:26;98684.74;;;13.5;100.0
64025;BME280;50266;57.446;26.936;2023-07-13T02:54:26;98687.83;;;13.61;100.0
64025;BME280;50266;57.446;26.936;2023-07-13T02:55:26;98684.28;;;13.58;100.0
64025;BME280;50266;57.446;26.936;2023-07-13T02:56:27;98684.14;;;13.65;100.0
64025;BME280;50266;57.446;26.936;2023-07-13T02:57:26;98684.36;;;13.74;100.0
64025;BME280;50266;57.446;26.936;2023-07-13T02:58:26;98683.31;;;13.81;100.0
64025;BME280;50266;57.446;26.936;2023-07-13T02:59:26;98687.3;;;13.8;100.0
64025;BME280;50266;57.446;26.936;2023-07-13T03:00:26;98686.09;;;13.87;100.0
64025;BME280;50266;57.446;26.936;2023-07-13T03:01:26;98688.67;;;13.99;100.0
64025;BME280;50266;57.446;26.936;2023-07-13T03:02:26;98691.16;;;14.15;100.0
64025;BME280;50266;57.446;26.936;2023-07-13T03:03:26;98687.62;;;14.1;100.0
64025;BME280;50266;57.446;26.936;2023-07-13T03:04:26;98687.81;;;14.12;100.0
64025;BME280;50266;57.446;26.936;2023-07-13T03:05:26;98694.16;;;14.25;100.0
64025;BME280;50266;57.446;26.936;2023-07-13T03:06:26;98691.39;;;14.29;100.0
64025;BME280;50266;57.446;26.936;2023-07-13T03:07:26;98690.86;;;14.63;100.0
64025;BME280;50266;57.446;26.936;2023-07-13T03:08:26;98683.27;;;14.58;100.0
64025;BME280;50266;57.446;26.936;2023-07-13T03:09:26;98688.34;;;14.39;100.0
64025;BME280;50266;57.446;26.936;2023-07-13T03:10:26;98686.22;;;14.51;100.0
64025;BME280;50266;57.446;26.936;2023-07-13T03:11:26;98689.02;;;14.62;100.0
64025;BME280;50266;57.446;26.936;2023-07-13T03:12:26;98687.13;;;14.71;100.0
64025;BME280;50266;57.446;26.936;2023-07-13T03:13:27;98692.5;;;14.67;100.0
64025;BME280;50266;57.446;26.936;2023-07-13T03:14:26;98693.86;;;14.76;100.0
64025;BME280;50266;57.446;26.936;2023-07-13T03:15:26;98689.02;;;14.77;100.0
64025;BME280;50266;57.446;26.936;2023-07-13T03:16:26;98694.48;;;14.79;100.0
64025;BME280;50266;57.446;26.936;2023-07-13T03:17:26;98692.44;;;14.74;100.0
64025;BME280;50266;57.446;26.936;2023-07-13T03:18:27;98692.25;;;14.66;100.0
64025;BME280;50266;57.446;26.936;2023-07-13T03:19:26;98690.35;;;14.74;100.0
64025;BME280;50266;57.446;26.936;2023-07-13T03:20:26;98689.69;;;14.68;100.0
64025;BME280;50266;57.446;26.936;2023-07-13T03:21:26;98689.81;;;14.52;100.0
64025;BME280;50266;57.446;26.936;2023-07-13T03:22:26;98689.09;;;14.56;100.0
64025;BME280;50266;57.446;26.936;2023-07-13T03:23:26;98686.65;;;14.52;100.0
64025;BME280;50266;57.446;26.936;2023-07-13T03:24:26;98691.13;;;14.58;100.0
64025;BME280;50266;57.446;26.936;2023-07-13T03:25:27;98690.27;;;14.57;100.0
64025;BME280;50266;57.446;26.936;2023-07-13T03:26:27;98689.41;;;14.81;100.0
64025;BME280;50266;57.446;26.936;2023-07-13T03:27:27;98684.53;;;14.7;100.0
64025;BME280;50266;57.446;26.936;2023-07-13T03:28:27;98686.38;;;14.71;100.0
64025;BME280;50266;57.446;26.936;2023-07-13T03:29:26;98684.05;;;14.86;100.0
64025;BME280;50266;57.446;26.936;2023-07-13T03:30:27;98683.02;;;14.78;100.0
64025;BME280;50266;57.446;26.936;2023-07-13T03:31:28;98681.23;;;14.61;100.0
64025;BME280;50266;57.446;26.936;2023-07-13T03:32:27;98682.61;;;14.58;100.0
64025;BME280;50266;57.446;26.936;2023-07-13T03:33:27;98681.12;;;14.59;100.0
64025;BME280;50266;57.446;26.936;2023-07-13T03:34:27;98682.53;;;14.59;100.0
64025;BME280;50266;57.446;26.936;2023-07-13T03:35:27;98680.72;;;14.6;100.0
64025;BME280;50266;57.446;26.936;2023-07-13T03:36:27;98682.12;;;14.59;100.0
64025;BME280;50266;57.446;26.936;2023-07-13T03:37:27;98678.64;;;14.73;100.0
64025;BME280;50266;57.446;26.936;2023-07-13T03:38:27;98683.77;;;14.84;100.0
64025;BME280;50266;57.446;26.936;2023-07-13T03:39:27;98684.18;;;14.9;100.0
64025;BME280;50266;57.446;26.936;2023-07-13T03:40:27;98679.89;;;14.94;100.0
64025;BME280;50266;57.446;26.936;2023-07-13T03:41:27;98682.0;;;14.96;100.0
64025;BME280;50266;57.446;26.936;2023-07-13T03:42:27;98681.52;;;15.06;100.0
64025;BME280;50266;57.446;26.936;2023-07-13T03:43:27;98686.23;;;15.19;100.0
64025;BME280;50266;57.446;26.936;2023-07-13T03:44:27;98679.06;;;15.28;100.0
64025;BME280;50266;57.446;26.936;2023-07-13T03:45:27;98682.0;;;15.29;100.0
64025;BME280;50266;57.446;26.936;2023-07-13T03:46:27;98680.86;;;15.32;100.0
64025;BME280;50266;57.446;26.936;2023-07-13T03:47:27;98676.69;;;15.42;100.0
64025;BME280;50266;57.446;26.936;2023-07-13T03:48:27;98681.55;;;15.51;100.0
64025;BME280;50266;57.446;26.936;2023-07-13T03:49:27;98681.05;;;15.56;100.0
64025;BME280;50266;57.446;26.936;2023-07-13T03:50:27;98678.98;;;15.54;100.0
64025;BME280;50266;57.446;26.936;2023-07-13T03:51:27;98679.92;;;15.47;100.0
64025;BME280;50266;57.446;26.936;2023-07-13T03:52:27;98681.05;;;15.67;100.0
64025;BME280;50266;57.446;26.936;2023-07-13T03:53:27;98678.62;;;15.88;100.0
64025;BME280;50266;57.446;26.936;2023-07-13T03:54:27;98680.72;;;15.99;100.0
64025;BME280;50266;57.446;26.936;2023-07-13T03:55:27;98680.83;;;16.06;100.0
64025;BME280;50266;57.446;26.936;2023-07-13T03:56:27;98680.3;;;16.11;100.0
64025;BME280;50266;57.446;26.936;2023-07-13T03:57:27;98678.87;;;16.01;100.0
64025;BME280;50266;57.446;26.936;2023-07-13T03:58:37;98677.75;;;15.94;100.0
64025;BME280;50266;57.446;26.936;2023-07-13T03:59:29;98679.37;;;16.01;100.0
64025;BME280;50266;57.446;26.936;2023-07-13T04:00:29;98676.71;;;16.0;100.0
64025;BME280;50266;57.446;26.936;2023-07-13T04:01:29;98679.38;;;15.98;100.0
64025;BME280;50266;57.446;26.936;2023-07-13T04:02:29;98681.03;;;15.96;100.0
64025;BME280;50266;57.446;26.936;2023-07-13T04:03:29;98682.88;;;15.86;100.0
64025;BME280;50266;57.446;26.936;2023-07-13T04:04:29;98680.84;;;15.93;100.0
64025;BME280;50266;57.446;26.936;2023-07-13T04:05:29;98680.81;;;16.03;100.0
64025;BME280;50266;57.446;26.936;2023-07-13T04:06:29;98680.41;;;16.15;100.0
64025;BME280;50266;57.446;26.936;2023-07-13T04:07:29;98680.04;;;16.25;100.0
64025;BME280;50266;57.446;26.936;2023-07-13T04:08:31;98679.88;;;16.38;100.0
64025;BME280;50266;57.446;26.936;2023-07-13T04:09:29;98678.22;;;16.44;100.0
64025;BME280;50266;57.446;26.936;2023-07-13T04:10:29;98677.78;;;16.25;100.0
64025;BME280;50266;57.446;26.936;2023-07-13T04:11:30;98681.31;;;16.13;100.0
64025;BME280;50266;57.446;26.936;2023-07-13T04:12:29;98679.34;;;16.08;100.0
64025;BME280;50266;57.446;26.936;2023-07-13T04:13:29;98676.45;;;15.99;100.0
64025;BME280;50266;57.446;26.936;2023-07-13T04:14:29;98677.11;;;15.97;100.0
64025;BME280;50266;57.446;26.936;2023-07-13T04:15:30;98675.28;;;16.03;100.0
64025;BME280;50266;57.446;26.936;2023-07-13T04:16:29;98675.86;;;15.98;100.0
64025;BME280;50266;57.446;26.936;2023-07-13T04:17:29;98675.96;;;16.04;100.0
64025;BME280;50266;57.446;26.936;2023-07-13T04:18:29;98674.12;;;16.04;100.0
64025;BME280;50266;57.446;26.936;2023-07-13T04:19:29;98674.92;;;15.96;100.0
64025;BME280;50266;57.446;26.936;2023-07-13T04:20:29;98675.02;;;15.89;100.0
64025;BME280;50266;57.446;26.936;2023-07-13T04:21:30;98672.72;;;15.84;100.0
64025;BME280;50266;57.446;26.936;2023-07-13T04:22:30;98672.44;;;15.8;100.0
64025;BME280;50266;57.446;26.936;2023-07-13T04:23:30;98672.38;;;15.79;100.0
64025;BME280;50266;57.446;26.936;2023-07-13T04:24:30;98672.4;;;15.86;100.0
64025;BME280;50266;57.446;26.936;2023-07-13T04:25:30;98675.52;;;15.88;100.0
64025;BME280;50266;57.446;26.936;2023-07-13T04:26:30;98675.38;;;15.9;100.0
64025;BME280;50266;57.446;26.936;2023-07-13T04:27:30;98676.36;;;15.88;100.0
64025;BME280;50266;57.446;26.936;2023-07-13T04:28:30;98674.55;;;15.91;100.0
64025;BME280;50266;57.446;26.936;2023-07-13T04:29:30;98675.12;;;16.0;100.0
64025;BME280;50266;57.446;26.936;2023-07-13T04:30:30;98675.61;;;15.98;100.0
64025;BME280;50266;57.446;26.936;2023-07-13T04:31:30;98675.2;;;16.13;100.0
64025;BME280;50266;57.446;26.936;2023-07-13T04:32:30;98675.86;;;16.26;100.0
64025;BME280;50266;57.446;26.936;2023-07-13T04:33:30;98680.2;;;16.26;100.0
64025;BME280;50266;57.446;26.936;2023-07-13T04:34:30;98677.34;;;16.34;100.0
64025;BME280;50266;57.446;26.936;2023-07-13T04:35:30;98676.38;;;16.4;100.0
64025;BME280;50266;57.446;26.936;2023-07-13T04:36:30;98674.99;;;16.52;100.0
64025;BME280;50266;57.446;26.936;2023-07-13T04:37:30;98672.09;;;16.69;100.0
64025;BME280;50266;57.446;26.936;2023-07-13T04:38:30;98671.56;;;16.8;100.0
64025;BME280;50266;57.446;26.936;2023-07-13T04:39:30;98669.12;;;16.85;100.0
64025;BME280;50266;57.446;26.936;2023-07-13T04:40:30;98670.96;;;16.84;100.0
64025;BME280;50266;57.446;26.936;2023-07-13T04:41:30;98672.55;;;16.84;100.0
64025;BME280;50266;57.446;26.936;2023-07-13T04:42:30;98672.41;;;16.87;100.0
64025;BME280;50266;57.446;26.936;2023-07-13T04:43:30;98677.36;;;16.9;100.0
64025;BME280;50266;57.446;26.936;2023-07-13T04:44:30;98676.2;;;16.92;100.0
64025;BME280;50266;57.446;26.936;2023-07-13T04:45:30;98680.17;;;16.99;100.0
64025;BME280;50266;57.446;26.936;2023-07-13T04:46:30;98681.17;;;16.97;100.0
64025;BME280;50266;57.446;26.936;2023-07-13T04:47:30;98673.45;;;16.95;100.0
64025;BME280;50266;57.446;26.936;2023-07-13T04:48:30;98679.47;;;16.91;100.0
64025;BME280;50266;57.446;26.936;2023-07-13T04:49:30;98676.09;;;16.87;100.0
64025;BME280;50266;57.446;26.936;2023-07-13T04:50:30;98679.45;;;16.89;100.0
64025;BME280;50266;57.446;26.936;2023-07-13T04:51:30;98682.36;;;16.83;100.0
64025;BME280;50266;57.446;26.936;2023-07-13T04:52:30;98680.55;;;16.83;100.0
64025;BME280;50266;57.446;26.936;2023-07-13T04:53:30;98680.77;;;16.84;100.0
64025;BME280;50266;57.446;26.936;2023-07-13T04:54:30;98684.92;;;16.91;100.0
64025;BME280;50266;57.446;26.936;2023-07-13T04:55:30;98684.08;;;16.9;100.0
64025;BME280;50266;57.446;26.936;2023-07-13T04:56:30;98684.16;;;16.89;100.0
64025;BME280;50266;57.446;26.936;2023-07-13T04:57:30;98679.73;;;16.93;100.0
64025;BME280;50266;57.446;26.936;2023-07-13T04:58:30;98685.06;;;17.02;100.0
64025;BME280;50266;57.446;26.936;2023-07-13T04:59:30;98677.41;;;17.07;100.0
64025;BME280;50266;57.446;26.936;2023-07-13T05:00:30;98681.95;;;17.08;100.0
64025;BME280;50266;57.446;26.936;2023-07-13T05:01:30;98676.92;;;17.1;100.0
64025;BME280;50266;57.446;26.936;2023-07-13T05:02:30;98681.47;;;17.15;100.0
64025;BME280;50266;57.446;26.936;2023-07-13T05:03:30;98682.59;;;17.31;100.0
64025;BME280;50266;57.446;26.936;2023-07-13T05:04:30;98680.52;;;17.41;100.0
64025;BME280;50266;57.446;26.936;2023-07-13T05:05:30;98682.61;;;17.48;100.0
64025;BME280;50266;57.446;26.936;2023-07-13T05:06:30;98685.33;;;17.59;100.0
64025;BME280;50266;57.446;26.936;2023-07-13T05:07:30;98687.03;;;17.72;100.0
64025;BME280;50266;57.446;26.936;2023-07-13T05:08:30;98689.3;;;17.73;100.0
64025;BME280;50266;57.446;26.936;2023-07-13T05:09:30;98686.79;;;17.77;100.0
64025;BME280;50266;57.446;26.936;2023-07-13T05:10:30;98686.55;;;17.8;100.0
64025;BME280;50266;57.446;26.936;2023-07-13T05:11:30;98685.02;;;17.97;100.0
64025;BME280;50266;57.446;26.936;2023-07-13T05:12:30;98688.12;;;18.01;100.0
64025;BME280;50266;57.446;26.936;2023-07-13T05:13:30;98683.65;;;18.09;100.0
64025;BME280;50266;57.446;26.936;2023-07-13T05:14:30;98685.08;;;18.15;100.0
64025;BME280;50266;57.446;26.936;2023-07-13T05:15:30;98685.0;;;18.19;100.0
64025;BME280;50266;57.446;26.936;2023-07-13T05:16:30;98683.48;;;18.2;100.0
64025;BME280;50266;57.446;26.936;2023-07-13T05:17:30;98684.74;;;18.22;100.0